Time;durP1;ratioP1;P1;durP2;ratioP2;P2;SDS_P1;SDS_P2;PMS_P1;PMS_P2;Temp;Humidity;BMP_temperature;BMP_pressure;BME280_temperature;BME280_humidity;BME280_pressure;Samples;Min_cycle;Max_cycle;Signal;HPM_P1;HPM_P2
2021/01/06 00:01:04;;;;;;;21.63;9.57;;;;;;;3.51;100.00;97544.97;5072614;28;20264;-72
2021/01/06 00:03:32;;;;;;;22.07;10.17;;;;;;;3.49;100.00;97540.84;5073706;28;20221;-74
2021/01/06 00:06:05;;;;;;;20.23;9.73;;;;;;;3.51;100.00;97554.72;5065104;28;20675;-74
2021/01/06 00:08:32;;;;;;;21.00;9.73;;;;;;;3.50;100.00;97548.59;5074051;28;20216;-73
2021/01/06 00:10:59;;;;;;;19.43;9.27;;;;;;;3.58;100.00;97545.97;5073127;28;20202;-71
2021/01/06 00:13:27;;;;;;;16.77;8.70;;;;;;;3.65;100.00;97551.38;5073514;28;20193;-76
2021/01/06 00:15:54;;;;;;;20.90;10.97;;;;;;;3.48;100.00;97549.75;5069663;28;20221;-76
2021/01/06 00:18:22;;;;;;;21.73;10.57;;;;;;;3.29;100.00;97550.94;5073656;28;20666;-77
2021/01/06 00:20:50;;;;;;;18.97;9.37;;;;;;;3.54;100.00;97547.28;5074085;28;20214;-78
2021/01/06 00:23:17;;;;;;;21.23;9.17;;;;;;;3.53;100.00;97548.28;5073987;28;20197;-75
2021/01/06 00:25:44;;;;;;;22.70;10.30;;;;;;;3.46;100.00;97535.94;5072173;28;20254;-75
2021/01/06 00:28:13;;;;;;;19.13;9.27;;;;;;;3.27;100.00;97537.13;5071035;28;20687;-76
2021/01/06 00:30:42;;;;;;;21.13;9.77;;;;;;;3.27;100.00;97537.13;5072845;28;20201;-76
2021/01/06 00:33:13;;;;;;;20.03;10.13;;;;;;;3.34;100.00;97532.81;5073624;28;20201;-75
2021/01/06 00:35:39;;;;;;;19.47;9.30;;;;;;;3.38;100.00;97538.56;5071068;28;20227;-75
2021/01/06 00:38:07;;;;;;;23.43;10.03;;;;;;;3.21;100.00;97543.03;5073778;28;20216;-76
2021/01/06 00:40:35;;;;;;;21.70;9.77;;;;;;;3.21;100.00;97536.97;5072530;28;20202;-78
2021/01/06 00:43:07;;;;;;;20.67;9.27;;;;;;;3.27;100.00;97546.84;5073259;28;20208;-77
2021/01/06 00:45:34;;;;;;;21.17;9.83;;;;;;;3.19;100.00;97545.03;5073681;28;20217;-75
2021/01/06 00:48:03;;;;;;;18.33;9.27;;;;;;;3.19;100.00;97545.03;5073213;28;20254;-74
2021/01/06 00:50:30;;;;;;;19.90;9.67;;;;;;;3.19;100.00;97539.75;5073774;28;20219;-74
2021/01/06 00:52:59;;;;;;;17.87;8.67;;;;;;;3.16;100.00;97544.53;5073652;28;20208;-74
2021/01/06 00:55:27;;;;;;;18.93;9.20;;;;;;;3.28;100.00;97538.75;5076704;28;20228;-75
2021/01/06 00:57:54;;;;;;;20.67;9.30;;;;;;;3.06;100.00;97544.69;5073525;28;20212;-75
2021/01/06 01:00:23;;;;;;;19.17;8.03;;;;;;;3.22;100.00;97543.88;5073496;28;20199;-76
2021/01/06 01:02:51;;;;;;;18.57;8.73;;;;;;;3.13;100.00;97539.59;5071591;28;20251;-76
2021/01/06 01:05:19;;;;;;;20.40;9.33;;;;;;;3.17;100.00;97541.75;5072148;28;20209;-76
2021/01/06 01:07:46;;;;;;;17.33;7.93;;;;;;;3.11;100.00;97546.84;5072602;28;20204;-76
2021/01/06 01:10:24;;;;;;;21.00;8.90;;;;;;;3.07;100.00;97538.47;5063693;28;20208;-78
2021/01/06 01:12:52;;;;;;;18.37;9.43;;;;;;;3.00;100.00;97548.00;5068166;28;20237;-76
2021/01/06 01:15:21;;;;;;;17.97;8.70;;;;;;;3.05;100.00;97550.97;5072964;28;20222;-76
2021/01/06 01:17:48;;;;;;;18.60;8.53;;;;;;;3.04;100.00;97551.97;5070619;28;20201;-76
2021/01/06 01:20:16;;;;;;;18.03;8.63;;;;;;;3.12;100.00;97549.34;5073010;28;20201;-76
2021/01/06 01:22:44;;;;;;;20.13;9.37;;;;;;;3.00;100.00;97555.09;5072798;28;20216;-76
2021/01/06 01:25:13;;;;;;;19.10;8.57;;;;;;;2.85;100.00;97554.09;5072309;28;20576;-75
2021/01/06 01:27:41;;;;;;;14.20;7.53;;;;;;;3.22;100.00;97551.78;5072189;28;20202;-76
2021/01/06 01:30:10;;;;;;;19.23;8.37;;;;;;;3.21;100.00;97558.06;5072342;28;20654;-76
2021/01/06 01:32:37;;;;;;;17.97;8.77;;;;;;;3.08;100.00;97555.06;5071987;28;20201;-77
2021/01/06 01:35:05;;;;;;;19.90;8.83;;;;;;;3.21;100.00;97558.84;5063626;28;20245;-76
2021/01/06 01:37:32;;;;;;;17.37;8.87;;;;;;;3.12;100.00;97562.50;5072544;28;20198;-76
2021/01/06 01:39:59;;;;;;;15.07;7.27;;;;;;;3.22;100.00;97559.69;5074276;28;20201;-76
2021/01/06 01:42:26;;;;;;;15.70;7.47;;;;;;;3.02;100.00;97568.94;5068533;28;20205;-77
2021/01/06 01:44:57;;;;;;;18.70;8.93;;;;;;;2.85;100.00;97565.44;5072323;28;20566;-74
2021/01/06 01:47:30;;;;;;;17.23;7.97;;;;;;;3.16;100.00;97561.16;5072525;28;20216;-76
2021/01/06 01:49:57;;;;;;;18.87;7.70;;;;;;;3.30;100.00;97563.13;5067261;28;20197;-76
2021/01/06 01:52:29;;;;;;;19.43;8.27;;;;;;;3.14;100.00;97560.53;5072205;28;20204;-77
2021/01/06 01:54:57;;;;;;;17.53;8.53;;;;;;;3.16;100.00;97557.72;5073267;28;20237;-76
2021/01/06 01:57:28;;;;;;;16.17;7.53;;;;;;;3.09;100.00;97562.81;5072346;28;20605;-76
2021/01/06 01:59:58;;;;;;;15.73;7.27;;;;;;;3.05;100.00;97563.34;5069842;28;20669;-76
2021/01/06 02:02:32;;;;;;;16.23;7.37;;;;;;;2.88;100.00;97570.41;5072339;28;20197;-76
2021/01/06 02:05:03;;;;;;;16.40;7.63;;;;;;;3.03;100.00;97563.50;5072039;28;20220;-76
2021/01/06 02:07:34;;;;;;;15.57;7.57;;;;;;;3.05;100.00;97564.13;5068505;28;20205;-77
2021/01/06 02:10:07;;;;;;;15.60;7.40;;;;;;;2.86;100.00;97555.75;5071534;28;20193;-76
2021/01/06 02:12:39;;;;;;;16.63;7.33;;;;;;;3.08;100.00;97548.00;5070516;28;20200;-75
2021/01/06 02:15:09;;;;;;;18.77;8.37;;;;;;;3.07;100.00;97551.63;5071853;28;20591;-76
2021/01/06 02:17:37;;;;;;;15.93;7.50;;;;;;;3.07;100.00;97545.53;5072152;28;20249;-75
2021/01/06 02:20:10;;;;;;;13.37;7.17;;;;;;;2.89;100.00;97558.88;5071604;28;20296;-76
2021/01/06 02:22:38;;;;;;;15.50;7.07;;;;;;;2.95;100.00;97549.50;5080262;28;20193;-76
2021/01/06 02:25:06;;;;;;;18.30;7.63;;;;;;;3.01;100.00;97547.00;5066508;28;20616;-76
2021/01/06 02:27:33;;;;;;;14.90;7.07;;;;;;;2.94;100.00;97546.03;5072010;28;20256;-76
2021/01/06 02:30:00;;;;;;;15.80;7.60;;;;;;;2.84;100.00;97542.72;5067981;28;20205;-76
2021/01/06 02:32:27;;;;;;;16.50;8.27;;;;;;;2.89;100.00;97536.97;5080197;28;20784;-75
2021/01/06 02:34:53;;;;;;;16.27;7.47;;;;;;;2.78;100.00;97535.50;5071215;28;20233;-76
2021/01/06 02:37:20;;;;;;;15.37;7.33;;;;;;;2.78;100.00;97545.19;5071592;28;20232;-76
2021/01/06 02:39:50;;;;;;;14.20;7.03;;;;;;;2.88;100.00;97537.94;5070574;28;20748;-76
2021/01/06 02:42:16;;;;;;;15.43;7.33;;;;;;;2.95;100.00;97542.41;5068090;28;20319;-76
2021/01/06 02:44:45;;;;;;;15.03;6.90;;;;;;;2.89;100.00;97543.06;5065372;28;20220;-76
2021/01/06 02:47:13;;;;;;;16.77;7.60;;;;;;;2.86;100.00;97545.22;5071764;28;20223;-76
2021/01/06 02:49:40;;;;;;;13.70;7.60;;;;;;;2.73;100.00;97537.78;5066582;28;20208;-76
2021/01/06 02:52:18;;;;;;;15.53;7.67;;;;;;;2.78;100.00;97543.38;5071422;28;20211;-76
2021/01/06 02:54:47;;;;;;;15.37;7.43;;;;;;;2.95;100.00;97537.13;5071021;28;20697;-75
2021/01/06 02:57:15;;;;;;;15.93;7.70;;;;;;;2.87;100.00;97531.88;5069137;28;20201;-75
2021/01/06 02:59:44;;;;;;;13.90;7.20;;;;;;;2.88;100.00;97537.94;5071472;28;20210;-76
2021/01/06 03:02:12;;;;;;;14.30;7.47;;;;;;;2.91;100.00;97541.09;5070371;28;20211;-76
2021/01/06 03:04:42;;;;;;;17.30;8.00;;;;;;;2.93;100.00;97536.47;5071117;28;20697;-76
2021/01/06 03:07:12;;;;;;;12.70;6.30;;;;;;;3.00;100.00;97537.44;5071437;28;20645;-76
2021/01/06 03:09:40;;;;;;;13.83;7.77;;;;;;;2.57;100.00;97543.03;5071449;28;20212;-73
2021/01/06 03:12:11;;;;;;;14.40;7.40;;;;;;;2.58;100.00;97535.94;5074562;28;20223;-76
2021/01/06 03:14:39;;;;;;;13.30;7.33;;;;;;;2.73;100.00;97542.22;5075017;28;20227;-77
2021/01/06 03:17:07;;;;;;;13.97;7.60;;;;;;;2.46;100.00;97538.09;5070050;28;20209;-73
2021/01/06 03:19:36;;;;;;;17.07;7.57;;;;;;;2.64;100.00;97528.22;5074913;28;20202;-75
2021/01/06 03:22:07;;;;;;;12.17;6.77;;;;;;;2.72;100.00;97535.31;5074700;28;20209;-76
2021/01/06 03:24:40;;;;;;;15.50;7.10;;;;;;;2.85;100.00;97528.56;5075027;28;20221;-76
2021/01/06 03:27:08;;;;;;;13.83;6.60;;;;;;;2.79;100.00;97533.69;5074096;28;20227;-76
2021/01/06 03:29:36;;;;;;;14.10;6.90;;;;;;;2.72;100.00;97538.78;5075075;28;20217;-76
2021/01/06 03:32:06;;;;;;;13.30;6.77;;;;;;;2.79;100.00;97525.78;5074767;28;20201;-75
2021/01/06 03:34:39;;;;;;;13.27;6.73;;;;;;;2.63;100.00;97526.59;5074641;28;20243;-76
2021/01/06 03:37:11;;;;;;;9.93;6.00;;;;;;;2.71;100.00;97523.97;5074878;28;20204;-76
2021/01/06 03:39:44;;;;;;;15.37;6.40;;;;;;;2.71;100.00;97520.50;5074722;28;20701;-76
2021/01/06 03:42:11;;;;;;;12.53;6.33;;;;;;;2.57;100.00;97529.88;5070619;28;20197;-75
2021/01/06 03:44:38;;;;;;;11.87;6.33;;;;;;;2.52;100.00;97526.91;5074523;28;20224;-76
2021/01/06 03:47:07;;;;;;;13.37;6.80;;;;;;;2.64;100.00;97517.69;5074787;28;20209;-75
2021/01/06 03:49:45;;;;;;;16.73;7.17;;;;;;;2.62;100.00;97521.47;5074373;28;20189;-76
2021/01/06 03:52:19;;;;;;;14.00;7.00;;;;;;;2.59;100.00;97521.81;5066246;28;20661;-76
2021/01/06 03:54:54;;;;;;;13.23;6.67;;;;;;;2.66;100.00;97523.63;5068566;28;20220;-76
2021/01/06 03:57:22;;;;;;;15.80;7.17;;;;;;;2.48;100.00;97519.47;5074384;28;20200;-76
2021/01/06 03:59:51;;;;;;;12.73;6.40;;;;;;;2.55;100.00;97523.94;5074309;28;20717;-76
2021/01/06 04:02:21;;;;;;;15.93;7.10;;;;;;;2.50;100.00;97520.97;5074522;28;20291;-76
2021/01/06 04:04:52;;;;;;;13.83;6.63;;;;;;;2.59;100.00;97525.25;5074356;28;20221;-76
2021/01/06 04:07:21;;;;;;;14.13;6.73;;;;;;;2.58;100.00;97528.88;5081965;28;20189;-76
2021/01/06 04:09:51;;;;;;;16.87;6.97;;;;;;;2.67;100.00;97524.44;5073928;28;20223;-76
2021/01/06 04:12:19;;;;;;;15.17;7.53;;;;;;;2.45;100.00;97517.19;5074097;28;20565;-76
2021/01/06 04:14:48;;;;;;;12.57;6.60;;;;;;;2.63;100.00;97513.41;5073795;28;20732;-76
2021/01/06 04:17:21;;;;;;;14.03;7.20;;;;;;;2.66;100.00;97515.72;5066468;28;20198;-75
2021/01/06 04:19:49;;;;;;;16.70;7.43;;;;;;;2.49;100.00;97519.31;5074075;28;20199;-75
2021/01/06 04:22:21;;;;;;;14.07;7.20;;;;;;;2.23;100.00;97516.00;5072829;28;20200;-75
2021/01/06 04:24:48;;;;;;;14.63;7.80;;;;;;;2.52;100.00;97513.75;5070545;28;20311;-75
2021/01/06 04:27:18;;;;;;;13.60;6.70;;;;;;;2.62;100.00;97516.22;5074036;28;20219;-75
2021/01/06 04:29:46;;;;;;;14.33;7.40;;;;;;;2.67;100.00;97514.75;5073924;28;20210;-75
2021/01/06 04:32:13;;;;;;;12.73;6.73;;;;;;;2.41;100.00;97519.31;5065698;28;20193;-75
2021/01/06 04:34:40;;;;;;;14.47;7.60;;;;;;;2.37;100.00;97515.38;5073495;28;20225;-75
2021/01/06 04:37:07;;;;;;;15.27;7.37;;;;;;;2.59;100.00;97514.72;5073655;28;20221;-75
2021/01/06 04:39:33;;;;;;;14.73;7.67;;;;;;;2.52;100.00;97515.53;5073622;28;20197;-75
2021/01/06 04:42:04;;;;;;;14.40;6.97;;;;;;;2.56;100.00;97520.34;5073472;28;20209;-76
2021/01/06 04:44:45;;;;;;;16.93;7.80;;;;;;;2.73;100.00;97521.16;5073893;28;20221;-76
2021/01/06 04:48:07;;;;;;;17.33;7.63;;;;;;;2.60;100.00;97520.81;5065358;28;20193;-75
2021/01/06 04:51:15;;;;;;;14.07;7.23;;;;;;;2.45;100.00;97519.81;5068726;28;20208;-75
2021/01/06 04:53:50;;;;;;;16.37;7.47;;;;;;;2.51;100.00;97520.00;5074084;28;20193;-75
2021/01/06 04:56:39;;;;;;;16.30;7.53;;;;;;;2.65;100.00;97524.59;5065548;28;20209;-75
2021/01/06 04:59:11;;;;;;;17.27;7.23;;;;;;;2.61;100.00;97517.19;5073256;28;20198;-75
2021/01/06 05:01:51;;;;;;;19.03;7.73;;;;;;;2.40;100.00;97520.28;5072927;28;20203;-75
2021/01/06 05:05:04;;;;;;;15.77;7.77;;;;;;;2.59;100.00;97516.56;5066929;28;20225;-75
2021/01/06 05:07:44;;;;;;;16.00;7.90;;;;;;;2.49;100.00;97514.06;5005779;28;20206;-75
2021/01/06 05:10:25;;;;;;;16.73;7.77;;;;;;;2.45;100.00;97514.56;5010751;28;20202;-75
2021/01/06 05:12:54;;;;;;;22.87;8.20;;;;;;;2.35;100.00;97519.16;5047575;28;20539;-75
2021/01/06 05:15:30;;;;;;;15.33;8.00;;;;;;;2.30;100.00;97519.59;5072943;28;20673;-75
2021/01/06 05:17:57;;;;;;;19.10;7.77;;;;;;;2.43;100.00;97519.97;5072605;28;20672;-75
2021/01/06 05:20:24;;;;;;;16.73;6.97;;;;;;;2.49;100.00;97511.41;5073138;28;20197;-75
2021/01/06 05:22:51;;;;;;;15.43;8.13;;;;;;;2.48;100.00;97517.69;5072637;28;20203;-75
2021/01/06 05:25:18;;;;;;;16.63;8.27;;;;;;;2.42;100.00;97528.88;5067122;28;20693;-75
2021/01/06 05:27:46;;;;;;;16.87;7.63;;;;;;;2.38;100.00;97518.81;5071834;28;20219;-75
2021/01/06 05:30:21;;;;;;;13.23;6.80;;;;;;;2.48;100.00;97517.69;5064596;28;20287;-75
2021/01/06 05:32:49;;;;;;;17.03;8.30;;;;;;;2.61;100.00;97523.31;5072225;28;20552;-76
2021/01/06 05:35:20;;;;;;;14.93;6.73;;;;;;;2.54;100.00;97524.91;5072416;28;20232;-76
2021/01/06 05:37:53;;;;;;;15.57;7.37;;;;;;;2.51;100.00;97522.63;5069295;28;20300;-76
2021/01/06 05:40:20;;;;;;;15.37;6.83;;;;;;;2.61;100.00;97525.09;5065318;28;20193;-75
2021/01/06 05:42:50;;;;;;;15.60;7.20;;;;;;;2.44;100.00;97531.34;5069089;28;20227;-79
2021/01/06 05:45:20;;;;;;;13.27;7.63;;;;;;;2.50;100.00;97523.59;5072687;28;20212;-75
2021/01/06 05:47:51;;;;;;;13.70;7.53;;;;;;;2.52;100.00;97524.28;5069925;28;20673;-75
2021/01/06 05:50:21;;;;;;;14.57;7.10;;;;;;;2.35;100.00;97524.41;5067119;28;20253;-75
2021/01/06 05:52:59;;;;;;;13.20;7.03;;;;;;;2.43;100.00;97527.88;5072100;28;20204;-76
2021/01/06 05:55:26;;;;;;;16.73;7.20;;;;;;;2.59;100.00;97529.72;5069619;28;20228;-75
2021/01/06 05:58:03;;;;;;;15.50;6.90;;;;;;;2.55;100.00;97531.84;5061169;28;20665;-75
2021/01/06 06:00:44;;;;;;;12.27;6.50;;;;;;;2.39;100.00;97534.44;5069994;28;20189;-75
2021/01/06 06:03:40;;;;;;;12.13;6.67;;;;;;;2.39;100.00;97538.91;5072083;28;20189;-75
2021/01/06 06:06:52;;;;;;;15.40;7.07;;;;;;;2.47;100.00;97536.28;5067309;28;20189;-75
2021/01/06 06:09:38;;;;;;;14.40;6.13;;;;;;;2.45;100.00;97533.00;5035880;28;20560;-74
2021/01/06 06:12:22;;;;;;;11.07;5.97;;;;;;;2.46;100.00;97535.47;5071810;28;20208;-76
2021/01/06 06:15:06;;;;;;;11.87;6.23;;;;;;;2.58;100.00;97541.22;5077312;28;20221;-75
2021/01/06 06:17:51;;;;;;;11.13;6.13;;;;;;;2.52;100.00;97534.81;5072123;28;20256;-76
2021/01/06 06:20:44;;;;;;;17.20;6.10;;;;;;;2.44;100.00;97536.59;5076327;28;20196;-76
2021/01/06 06:23:27;;;;;;;12.07;6.17;;;;;;;2.63;100.00;97539.75;5065883;28;20611;-76
2021/01/06 06:26:03;;;;;;;13.37;6.27;;;;;;;2.37;100.00;97546.97;5071750;28;20193;-76
2021/01/06 06:28:33;;;;;;;12.27;6.67;;;;;;;2.40;100.00;97541.34;5071946;28;20191;-76
2021/01/06 06:31:09;;;;;;;11.43;6.00;;;;;;;2.50;100.00;97541.22;5071882;28;20677;-76
2021/01/06 06:33:36;;;;;;;12.53;6.77;;;;;;;2.42;100.00;97546.47;5071819;28;20222;-76
2021/01/06 06:36:10;;;;;;;14.20;6.30;;;;;;;2.58;100.00;97543.84;5071856;28;20233;-76
2021/01/06 06:38:39;;;;;;;13.67;5.73;;;;;;;2.33;100.00;97547.41;5071947;28;20615;-76
2021/01/06 06:41:08;;;;;;;11.43;6.27;;;;;;;2.57;100.00;97548.31;5070405;28;20239;-77
2021/01/06 06:43:40;;;;;;;13.03;6.40;;;;;;;2.58;100.00;97555.22;5071939;28;20229;-75
2021/01/06 06:46:17;;;;;;;11.53;5.63;;;;;;;2.49;100.00;97552.75;5074507;28;20197;-75
2021/01/06 06:49:13;;;;;;;10.70;5.70;;;;;;;2.41;100.00;97552.72;5075939;28;20192;-75
2021/01/06 06:51:43;;;;;;;11.43;5.93;;;;;;;2.54;100.00;97559.16;5071002;28;20258;-78
2021/01/06 06:54:14;;;;;;;12.33;5.77;;;;;;;2.63;100.00;97558.19;5075723;28;20221;-76
2021/01/06 06:56:46;;;;;;;10.50;6.07;;;;;;;2.65;100.00;97566.75;5075485;28;20220;-75
2021/01/06 06:59:14;;;;;;;11.83;5.63;;;;;;;2.58;100.00;97567.56;5079165;28;20196;-75
2021/01/06 07:01:44;;;;;;;11.97;6.40;;;;;;;2.25;100.00;97564.03;5080250;28;20219;-75
2021/01/06 07:04:21;;;;;;;12.03;6.50;;;;;;;2.58;100.00;97559.66;5075023;28;20224;-75
2021/01/06 07:06:56;;;;;;;9.60;5.80;;;;;;;2.19;100.00;97558.59;5073408;28;20205;-78
2021/01/06 07:09:29;;;;;;;9.63;5.33;;;;;;;2.51;100.00;97567.41;5075546;28;20192;-76
2021/01/06 07:12:02;;;;;;;14.10;6.87;;;;;;;2.40;100.00;97575.59;5074745;28;20258;-76
2021/01/06 07:14:31;;;;;;;9.80;4.97;;;;;;;2.56;100.00;97580.06;5069241;28;20225;-76
2021/01/06 07:17:02;;;;;;;12.27;6.27;;;;;;;2.47;100.00;97576.59;5067783;28;20275;-76
2021/01/06 07:19:32;;;;;;;9.07;5.50;;;;;;;2.41;100.00;97574.63;5075251;28;20189;-76
2021/01/06 07:22:09;;;;;;;9.63;5.27;;;;;;;2.35;100.00;97580.50;5074671;28;20206;-76
2021/01/06 07:24:36;;;;;;;12.63;5.53;;;;;;;2.54;100.00;97579.41;5074562;28;20221;-75
2021/01/06 07:27:05;;;;;;;9.70;5.33;;;;;;;2.41;100.00;97579.06;5075036;28;20200;-77
2021/01/06 07:29:45;;;;;;;12.03;5.23;;;;;;;2.43;100.00;97575.28;5074783;28;20193;-76
2021/01/06 07:32:13;;;;;;;11.50;5.80;;;;;;;2.48;100.00;97575.63;5074884;28;20185;-76
2021/01/06 07:34:42;;;;;;;11.07;5.83;;;;;;;2.51;100.00;97572.66;5070094;28;20272;-76
2021/01/06 07:37:39;;;;;;;12.03;5.63;;;;;;;2.62;100.00;97582.06;5074937;28;20218;-76
2021/01/06 07:40:22;;;;;;;11.23;5.50;;;;;;;2.46;100.00;97577.59;5073662;28;20205;-75
2021/01/06 07:42:51;;;;;;;10.80;6.23;;;;;;;2.47;100.00;97584.50;5071611;28;20537;-76
2021/01/06 07:45:29;;;;;;;10.33;5.80;;;;;;;2.62;100.00;97582.88;5076789;28;20236;-76
2021/01/06 07:48:21;;;;;;;11.00;5.63;;;;;;;2.55;100.00;97589.78;5074863;28;20197;-76
2021/01/06 07:50:52;;;;;;;9.90;4.83;;;;;;;2.72;100.00;97590.63;5080135;28;20211;-76
2021/01/06 07:53:20;;;;;;;10.83;5.83;;;;;;;2.67;100.00;97592.94;5075047;28;20212;-74
2021/01/06 07:55:54;;;;;;;9.90;4.70;;;;;;;2.64;100.00;97591.44;5073783;28;20690;-78
2021/01/06 07:58:30;;;;;;;8.20;5.53;;;;;;;2.72;100.00;97599.38;5074756;28;20189;-74
2021/01/06 08:01:03;;;;;;;10.53;5.90;;;;;;;2.72;100.00;97602.00;5074602;28;20239;-75
2021/01/06 08:03:36;;;;;;;9.13;5.20;;;;;;;2.76;100.00;97599.88;5074159;28;20198;-75
2021/01/06 08:06:04;;;;;;;10.23;5.40;;;;;;;2.70;100.00;97598.69;5074496;28;20204;-79
2021/01/06 08:08:40;;;;;;;10.80;5.17;;;;;;;2.69;100.00;97599.69;5074482;28;20204;-77
2021/01/06 08:11:08;;;;;;;9.97;4.97;;;;;;;2.60;100.00;97595.38;5073780;28;20242;-75
2021/01/06 08:13:37;;;;;;;8.10;5.07;;;;;;;2.65;100.00;97603.63;5074830;28;20209;-77
2021/01/06 08:16:20;;;;;;;11.07;5.47;;;;;;;2.72;100.00;97603.81;5075744;28;20278;-77
2021/01/06 08:19:05;;;;;;;13.57;5.57;;;;;;;2.69;100.00;97604.16;5068464;28;20197;-78
2021/01/06 08:21:36;;;;;;;7.93;5.03;;;;;;;2.51;100.00;97606.91;5065556;28;20642;-77
2021/01/06 08:24:11;;;;;;;12.90;5.90;;;;;;;2.63;100.00;97612.66;5073858;28;20217;-76
2021/01/06 08:26:47;;;;;;;9.13;5.47;;;;;;;2.69;100.00;97609.41;5067475;28;20188;-76
2021/01/06 08:29:19;;;;;;;10.10;5.90;;;;;;;2.59;100.00;97611.38;5074421;28;20197;-76
2021/01/06 08:31:47;;;;;;;13.57;6.63;;;;;;;2.76;100.00;97608.59;5081990;28;20189;-77
2021/01/06 08:34:22;;;;;;;12.07;6.00;;;;;;;2.78;100.00;97598.72;5069948;28;20228;-78
2021/01/06 08:36:55;;;;;;;8.10;5.20;;;;;;;2.57;100.00;97611.53;5071869;28;20239;-76
2021/01/06 08:39:24;;;;;;;12.23;5.60;;;;;;;2.84;100.00;97613.06;5073518;28;20238;-76
2021/01/06 08:41:52;;;;;;;9.63;5.43;;;;;;;2.70;100.00;97611.88;5067485;28;20563;-76
2021/01/06 08:44:31;;;;;;;9.20;5.07;;;;;;;2.76;100.00;97613.03;5071640;28;20259;-78
2021/01/06 08:47:01;;;;;;;10.60;6.23;;;;;;;2.51;100.00;97620.06;5076770;28;20322;-82
2021/01/06 08:49:30;;;;;;;8.17;5.17;;;;;;;2.74;100.00;97617.66;5083529;28;20564;-80
2021/01/06 08:52:21;;;;;;;8.77;5.10;;;;;;;2.58;100.00;97625.50;5084627;28;20206;-81
2021/01/06 08:54:58;;;;;;;11.17;5.93;;;;;;;2.77;100.00;97615.50;5083259;28;20225;-80
2021/01/06 08:57:30;;;;;;;9.43;5.23;;;;;;;2.87;100.00;97613.56;5073402;28;20227;-78
2021/01/06 08:59:58;;;;;;;8.27;5.33;;;;;;;2.72;100.00;97617.81;5078475;28;20206;-83
2021/01/06 09:02:33;;;;;;;8.50;4.80;;;;;;;2.76;100.00;97615.66;5075021;28;20201;-78
2021/01/06 09:04:59;;;;;;;9.60;5.73;;;;;;;2.50;100.00;97617.59;5075323;28;20221;-81
2021/01/06 09:07:30;;;;;;;8.43;5.17;;;;;;;2.68;100.00;97618.28;5069466;28;20606;-78
2021/01/06 09:10:12;;;;;;;9.90;5.10;;;;;;;2.68;100.00;97620.91;5074713;28;20205;-76
2021/01/06 09:12:55;;;;;;;9.53;4.77;;;;;;;2.75;100.00;97622.75;5075996;28;20662;-80
2021/01/06 09:15:32;;;;;;;10.37;5.83;;;;;;;2.87;100.00;97624.09;5070487;28;20220;-81
2021/01/06 09:18:07;;;;;;;9.57;5.33;;;;;;;2.85;100.00;97626.06;5074007;28;20205;-76
2021/01/06 09:20:41;;;;;;;8.73;4.93;;;;;;;2.86;100.00;97624.25;5074862;28;20199;-78
2021/01/06 09:23:13;;;;;;;9.47;5.73;;;;;;;2.50;100.00;97639.47;5074065;28;20208;-78
2021/01/06 09:25:40;;;;;;;9.60;5.33;;;;;;;2.79;100.00;97631.97;5075931;28;20300;-76
2021/01/06 09:28:08;;;;;;;10.43;5.50;;;;;;;2.64;100.00;97638.84;5073523;28;20201;-77
2021/01/06 09:30:38;;;;;;;8.70;5.37;;;;;;;2.69;100.00;97641.03;5069631;28;20651;-76
2021/01/06 09:33:23;;;;;;;10.53;5.90;;;;;;;2.79;100.00;97642.50;5070819;28;20905;-79
2021/01/06 09:35:50;;;;;;;10.73;5.13;;;;;;;2.78;100.00;97646.13;5072904;28;20212;-80
2021/01/06 09:38:25;;;;;;;10.33;6.23;;;;;;;3.12;100.00;97648.66;5067307;28;20205;-76
2021/01/06 09:40:53;;;;;;;11.73;5.70;;;;;;;2.82;100.00;97646.63;5072012;28;20749;-77
2021/01/06 09:43:24;;;;;;;9.57;5.87;;;;;;;2.66;100.00;97643.97;5068858;28;20215;-78
2021/01/06 09:45:52;;;;;;;7.07;4.77;;;;;;;2.96;100.00;97643.38;5076238;28;20663;-78
2021/01/06 09:48:19;;;;;;;10.20;5.80;;;;;;;2.65;100.00;97656.31;5071530;28;20193;-77
2021/01/06 09:50:49;;;;;;;11.03;5.60;;;;;;;2.82;100.00;97652.75;5068511;28;20686;-80
2021/01/06 09:53:19;;;;;;;8.83;5.27;;;;;;;2.68;100.00;97649.88;5069724;28;20218;-85
2021/01/06 09:55:48;;;;;;;9.03;5.33;;;;;;;2.81;100.00;97647.63;5063010;28;20235;-78
2021/01/06 09:58:20;;;;;;;9.00;5.10;;;;;;;2.75;100.00;97648.28;5066141;28;20549;-76
2021/01/06 10:00:54;;;;;;;9.17;5.20;;;;;;;2.90;100.00;97642.19;5075017;28;20293;-80
2021/01/06 10:03:21;;;;;;;10.17;5.67;;;;;;;2.88;100.00;97644.19;5066371;28;20325;-75
2021/01/06 10:06:14;;;;;;;8.50;5.13;;;;;;;2.88;100.00;97648.63;5066303;28;20224;-76
2021/01/06 10:08:46;;;;;;;10.07;5.47;;;;;;;2.97;100.00;97634.47;5059172;28;20208;-80
2021/01/06 10:11:27;;;;;;;10.10;5.57;;;;;;;2.67;100.00;97646.44;5063343;28;21064;-77
2021/01/06 10:14:07;;;;;;;11.37;5.63;;;;;;;2.66;100.00;97641.34;5066667;28;20411;-75
2021/01/06 10:16:38;;;;;;;9.93;5.10;;;;;;;2.82;100.00;97644.00;5069683;28;20240;-81
2021/01/06 10:19:26;;;;;;;10.47;5.53;;;;;;;2.79;100.00;97644.34;5072038;28;20205;-85
2021/01/06 10:22:03;;;;;;;12.30;5.93;;;;;;;2.70;100.00;97640.84;5083398;28;20268;-84
2021/01/06 10:24:48;;;;;;;9.80;5.20;;;;;;;2.66;100.00;97644.81;5075334;28;20244;-78
2021/01/06 10:27:25;;;;;;;8.47;5.13;;;;;;;2.93;100.00;97628.72;5072967;28;20560;-78
2021/01/06 10:29:55;;;;;;;8.40;4.73;;;;;;;2.82;100.00;97639.56;5074585;28;20215;-83
2021/01/06 10:32:45;;;;;;;8.80;5.20;;;;;;;2.77;100.00;97639.22;5067694;28;20217;-74
2021/01/06 10:35:28;;;;;;;12.13;6.00;;;;;;;2.97;100.00;97639.75;5070497;28;20230;-76
2021/01/06 10:37:56;;;;;;;8.67;5.47;;;;;;;2.77;100.00;97633.97;5067577;28;20296;-77
2021/01/06 10:40:35;;;;;;;9.43;5.27;;;;;;;2.96;100.00;97632.84;5073854;28;20223;-75
2021/01/06 10:43:35;;;;;;;9.93;5.40;;;;;;;2.67;100.00;97632.44;5068862;28;20193;-78
2021/01/06 10:46:02;;;;;;;10.77;5.30;;;;;;;2.85;100.00;97630.53;5071325;28;20297;-78
2021/01/06 10:48:43;;;;;;;8.17;4.73;;;;;;;2.78;100.00;97630.34;5065909;28;20207;-79
2021/01/06 10:51:10;;;;;;;11.53;5.47;;;;;;;2.82;100.00;97628.19;5070313;28;20204;-77
2021/01/06 10:53:40;;;;;;;11.17;6.07;;;;;;;2.93;100.00;97631.34;5074835;28;20201;-76
2021/01/06 10:56:10;;;;;;;10.23;6.17;;;;;;;2.57;100.00;97634.38;5079547;28;20233;-78
2021/01/06 10:58:51;;;;;;;9.77;5.73;;;;;;;2.94;100.00;97624.25;5067904;28;20198;-76
2021/01/06 11:01:38;;;;;;;9.07;5.20;;;;;;;2.78;100.00;97630.34;5068426;28;20696;-76
2021/01/06 11:04:41;;;;;;;10.73;5.60;;;;;;;2.80;100.00;97625.72;5070755;28;20225;-80
2021/01/06 11:07:20;;;;;;;12.00;5.40;;;;;;;2.66;100.00;97621.09;5053935;28;21537;-78
2021/01/06 11:10:04;;;;;;;11.10;5.60;;;;;;;2.66;100.00;97622.91;5068884;28;20206;-78
2021/01/06 11:12:42;;;;;;;11.90;6.03;;;;;;;2.53;100.00;97625.16;5063683;28;20198;-77
2021/01/06 11:15:49;;;;;;;9.53;5.10;;;;;;;2.70;100.00;97619.75;5071666;28;20635;-73
2021/01/06 11:18:20;;;;;;;10.93;6.37;;;;;;;2.83;100.00;97621.94;5062692;28;20203;-75
2021/01/06 11:20:50;;;;;;;9.40;5.53;;;;;;;2.62;100.00;97625.03;5064321;28;20217;-76
2021/01/06 11:23:42;;;;;;;11.60;6.60;;;;;;;2.78;100.00;97614.53;5067481;28;20228;-77
2021/01/06 11:26:52;;;;;;;10.80;5.83;;;;;;;2.59;100.00;97624.53;5069894;28;20194;-79
2021/01/06 11:29:52;;;;;;;13.53;6.33;;;;;;;2.58;100.00;97618.44;5070164;28;20266;-76
2021/01/06 11:32:42;;;;;;;7.37;5.00;;;;;;;2.93;100.00;97612.91;5073656;28;20590;-76
2021/01/06 11:35:19;;;;;;;12.23;6.60;;;;;;;2.87;100.00;97612.72;5074869;28;20316;-80
2021/01/06 11:37:47;;;;;;;9.90;6.17;;;;;;;2.88;100.00;97609.09;5075316;28;20240;-78
2021/01/06 11:40:38;;;;;;;11.10;6.07;;;;;;;3.06;100.00;97607.94;5072482;28;20200;-75
2021/01/06 11:43:23;;;;;;;12.27;6.27;;;;;;;3.11;100.00;97603.00;5046424;28;20201;-81
2021/01/06 11:45:51;;;;;;;12.97;6.60;;;;;;;3.11;100.00;97607.47;5068110;28;20282;-76
2021/01/06 11:48:27;;;;;;;12.93;6.57;;;;;;;3.17;100.00;97599.75;5064773;28;20602;-76
2021/01/06 11:50:55;;;;;;;11.63;5.80;;;;;;;2.93;100.00;97599.72;5071904;28;20209;-73
2021/01/06 11:53:25;;;;;;;9.03;5.57;;;;;;;2.94;100.00;97603.16;5078596;28;20209;-73
2021/01/06 11:56:15;;;;;;;10.50;6.33;;;;;;;3.20;100.00;97601.22;5076193;28;20214;-77